createdAt,value
2023-03-17T00:00:01.249Z,67.11
2023-03-17T00:10:12.436Z,66.82
2023-03-17T00:20:23.481Z,67.03
2023-03-17T00:30:30.938Z,66.91
2023-03-17T00:40:38.014Z,67.12
2023-03-17T00:50:44.984Z,67.26
2023-03-17T01:00:52.398Z,67.16
2023-03-17T01:11:00.498Z,67.23
2023-03-17T01:21:08.289Z,67.37
2023-03-17T01:31:15.569Z,67.45
2023-03-17T01:41:22.901Z,67.36
2023-03-17T01:51:31.398Z,67.67
2023-03-17T02:01:43.721Z,67.75
2023-03-17T02:11:50.772Z,68.20
2023-03-17T02:21:57.177Z,68.38
2023-03-17T02:32:02.134Z,68.85
2023-03-17T02:42:09.146Z,68.90
2023-03-17T02:52:16.228Z,68.79
2023-03-17T03:02:23.082Z,68.82
2023-03-17T03:12:30.846Z,69.11
2023-03-17T03:22:41.681Z,69.15
2023-03-17T03:32:49.335Z,69.74
2023-03-17T03:42:56.657Z,69.76
2023-03-17T03:53:03.856Z,69.82
2023-03-17T04:03:11.000Z,70.39
2023-03-17T04:13:18.240Z,70.71
2023-03-17T04:23:25.589Z,71.20
2023-03-17T04:33:32.671Z,71.39
2023-03-17T04:43:38.893Z,71.72
2023-03-17T04:53:46.364Z,71.66
2023-03-17T05:03:54.016Z,71.50
2023-03-17T05:14:01.302Z,71.53
2023-03-17T05:24:06.605Z,71.61
2023-03-17T05:34:14.051Z,71.64
2023-03-17T05:44:20.740Z,71.74
2023-03-17T05:54:27.906Z,71.77
2023-03-17T06:04:35.262Z,71.37
2023-03-17T06:14:42.586Z,70.51
2023-03-17T06:24:50.123Z,69.41
2023-03-17T06:34:57.122Z,68.17
2023-03-17T06:45:05.306Z,67.59
2023-03-17T06:55:13.842Z,65.51
2023-03-17T07:05:18.849Z,63.36
2023-03-17T07:15:26.335Z,61.88
2023-03-17T07:25:37.331Z,60.13
2023-03-17T07:35:44.953Z,58.43
2023-03-17T07:45:52.391Z,57.81
2023-03-17T07:55:59.938Z,55.79
2023-03-17T08:06:06.639Z,55.51
2023-03-17T08:16:13.362Z,53.52
2023-03-17T08:26:18.916Z,53.02
2023-03-17T08:36:26.223Z,52.09
2023-03-17T08:46:34.719Z,49.90
2023-03-17T08:56:42.258Z,48.40
2023-03-17T09:07:02.870Z,47.94
2023-03-17T09:27:18.460Z,46.49
2023-03-17T09:37:24.980Z,47.32
2023-03-17T09:48:03.982Z,46.07
2023-03-17T09:58:13.123Z,44.20
2023-03-17T10:08:31.622Z,43.08
2023-03-17T10:18:44.136Z,40.91
2023-03-17T10:28:51.809Z,41.72
2023-03-17T10:38:59.002Z,41.04
2023-03-17T10:49:10.897Z,39.87
2023-03-17T10:59:19.856Z,40.36
2023-03-17T11:09:28.841Z,39.41
2023-03-17T11:19:37.722Z,39.65
2023-03-17T11:30:09.723Z,39.34
2023-03-17T11:40:21.899Z,37.73
2023-03-17T11:50:28.429Z,37.73
2023-03-17T12:00:38.183Z,35.67
2023-03-17T12:10:49.740Z,35.92
2023-03-17T12:21:02.023Z,35.18
2023-03-17T12:31:14.178Z,34.96
2023-03-17T12:41:41.759Z,33.88
2023-03-17T12:51:51.602Z,33.42
2023-03-17T13:01:57.648Z,33.45
2023-03-17T13:12:04.741Z,33.40
2023-03-17T13:22:38.879Z,34.46
2023-03-17T13:32:45.647Z,34.05
2023-03-17T13:42:58.417Z,33.54
2023-03-17T13:53:11.086Z,33.21
2023-03-17T14:03:19.126Z,32.74
2023-03-17T14:13:28.828Z,31.90
2023-03-17T14:23:34.895Z,32.75
2023-03-17T14:33:43.318Z,32.86
2023-03-17T14:43:51.359Z,32.59
2023-03-17T14:54:02.294Z,32.20
2023-03-17T15:04:12.765Z,34.08
2023-03-17T15:14:27.266Z,33.83
2023-03-17T15:24:38.170Z,34.39
2023-03-17T15:34:45.577Z,34.23
2023-03-17T15:44:53.191Z,33.52
2023-03-17T15:55:01.530Z,33.09
2023-03-17T16:05:08.599Z,33.06
2023-03-17T16:15:23.031Z,33.64
2023-03-17T16:25:32.936Z,34.93
2023-03-17T16:35:40.769Z,35.75
2023-03-17T16:45:47.938Z,36.77
2023-03-17T16:55:56.886Z,37.71
2023-03-17T17:06:04.332Z,38.57
2023-03-17T17:16:14.826Z,39.14
2023-03-17T17:26:21.307Z,39.81
2023-03-17T17:36:29.336Z,40.42
2023-03-17T17:46:37.766Z,40.68
2023-03-17T17:56:47.007Z,41.10
2023-03-17T18:06:54.187Z,41.36
2023-03-17T18:17:01.645Z,41.59
2023-03-17T18:27:07.347Z,42.02
2023-03-17T18:37:17.839Z,42.35
2023-03-17T18:47:25.105Z,42.73
2023-03-17T18:57:32.378Z,43.17
2023-03-17T19:17:46.789Z,43.71
2023-03-17T19:27:53.934Z,43.94
2023-03-17T19:38:03.897Z,44.10
2023-03-17T19:48:11.582Z,44.13
2023-03-17T19:58:19.053Z,44.33
2023-03-17T20:08:26.678Z,44.50
2023-03-17T20:18:34.563Z,44.50
2023-03-17T20:28:40.932Z,44.57
2023-03-17T20:48:58.913Z,45.05
2023-03-17T20:59:09.750Z,45.27
2023-03-17T21:09:16.910Z,45.51
2023-03-17T21:19:24.192Z,45.80
2023-03-17T21:29:32.912Z,46.08
2023-03-17T21:39:40.238Z,46.46
2023-03-17T21:49:47.223Z,46.79
2023-03-17T21:59:54.597Z,47.10
2023-03-17T22:10:01.184Z,47.56
2023-03-17T22:20:07.247Z,47.87
2023-03-17T22:30:15.875Z,48.18
2023-03-17T22:40:20.670Z,48.48
2023-03-17T22:50:28.214Z,49.17
2023-03-17T23:00:36.307Z,49.39
2023-03-17T23:10:42.469Z,49.79
2023-03-17T23:20:49.976Z,50.45
2023-03-17T23:30:58.292Z,50.64
2023-03-17T23:41:05.423Z,50.91
2023-03-17T23:51:11.139Z,51.37
